Scotia — MXHR6 — position and weather

sailwx.info

Track history (hours):
 
Tides and Currents Weather Stations Pressure Air Temp Water Temp Dewpoint Dewpoint Depression Visibility Wind Speed Wind Dir Waves Ship Positions

Oceanographic research ship Scotia (UK)

Detailed information on ship capabilities available from University of Delaware's Ocean Information Center.

Last reported at 2019-Oct-14 09:13 UTC. Time now 2019-Oct-17 18:39 UTC.
Position N 57°36' W 001°18'.

Length 68.6 m; beam 15 m; draft 5.6 m.

Type: Other ship. MMSI: 234973000.

Date/timePositionNaut miles runAvg speedWind from/ knotsBaromVisibWave heightAir tempDewpointWater temp
2019-Oct-14 09:13N 57°36' W 001°18'211.1
2019-Oct-14 09:01N 57°34' W 001°20'2 4.9
2019-Oct-14 08:31N 57°31' W 001°21'0 0.0
2019-Oct-14 08:00N 57°31' W 001°21'0 0.5
2019-Oct-14 07:30N 57°31' W 001°21'0 0.0
2019-Oct-14 06:50N 57°31' W 001°21'3 9.1
2019-Oct-14 06:30N 57°29' W 001°26'611.8
2019-Oct-14 06:00N 57°25' W 001°33'612.2
2019-Oct-14 05:31N 57°21' W 001°41'612.1
2019-Oct-14 05:00N 57°16' W 001°49'611.7
2019-Oct-14 04:30N 57°12' W 001°57'5 9.8
2019-Oct-14 04:01N 57°09' W 002°03'1 1.6
2019-Oct-14 03:30N 57°09' W 002°05'0 0.0
2019-Oct-14 03:00N 57°09' W 002°05'0 0.0
2019-Oct-14 02:30N 57°09' W 002°05'0 0.0
2019-Oct-14 02:00N 57°09' W 002°05'0 0.0
2019-Oct-14 01:30N 57°09' W 002°05'0 0.0
2019-Oct-14 01:00N 57°09' W 002°05'0 0.0
2019-Oct-14 00:30N 57°09' W 002°05'0 0.0
2019-Oct-14 00:00N 57°09' W 002°05'0 0.0
2019-Oct-13 23:30N 57°09' W 002°05'0 0.0
2019-Oct-13 23:00N 57°09' W 002°05'0 0.0
2019-Oct-13 22:30N 57°09' W 002°05'0 0.0
2019-Oct-13 22:00N 57°09' W 002°05'0 0.0
2019-Oct-13 21:30N 57°09' W 002°05'0 0.0
2019-Oct-13 21:00N 57°09' W 002°05'0 0.0
2019-Oct-13 20:30N 57°09' W 002°05'0 0.0
2019-Oct-13 20:00N 57°09' W 002°05'0 0.0
2019-Oct-13 19:30N 57°09' W 002°05'0 0.0
2019-Oct-13 19:00N 57°09' W 002°05'0 0.0
2019-Oct-13 18:30N 57°09' W 002°05'0 0.0
2019-Oct-13 18:00N 57°09' W 002°05'0 0.0
2019-Oct-13 17:30N 57°09' W 002°05'0 0.0
2019-Oct-13 17:00N 57°09' W 002°05'0 0.0
2019-Oct-13 16:30N 57°09' W 002°05'0 0.0
2019-Oct-13 16:00N 57°09' W 002°05'0 0.0
2019-Oct-13 15:30N 57°09' W 002°05'0 0.0
2019-Oct-13 15:00N 57°09' W 002°05'0 0.0
2019-Oct-13 14:30N 57°09' W 002°05'0 0.0
2019-Oct-13 14:00N 57°09' W 002°05'0 0.0
2019-Oct-13 13:30N 57°09' W 002°05'0 0.0
2019-Oct-13 13:00N 57°09' W 002°05'0 0.0
2019-Oct-13 12:30N 57°09' W 002°05'0 0.0
2019-Oct-13 12:00N 57°09' W 002°05'0 0.0
2019-Oct-13 11:30N 57°09' W 002°05'0 0.0
2019-Oct-13 11:00N 57°09' W 002°05'0 0.0
2019-Oct-13 10:30N 57°09' W 002°05'0 0.0
2019-Oct-13 10:00N 57°09' W 002°05'0 0.0
2019-Oct-13 09:30N 57°09' W 002°05'0 0.0
2019-Oct-13 09:00N 57°09' W 002°05'0 0.0
2019-Oct-13 08:30N 57°09' W 002°05'0 0.0
2019-Oct-13 08:00N 57°09' W 002°05'0 0.0
2019-Oct-13 07:30N 57°09' W 002°05'0 0.0
2019-Oct-13 07:00N 57°09' W 002°05'0 0.0
2019-Oct-13 06:30N 57°09' W 002°05'0 0.0
2019-Oct-13 06:00N 57°09' W 002°05'0 0.0
2019-Oct-13 05:30N 57°09' W 002°05'0 0.0
2019-Oct-13 05:00N 57°09' W 002°05'0 0.0
2019-Oct-13 04:30N 57°09' W 002°05'0 0.0
2019-Oct-13 04:00N 57°09' W 002°05'0 0.0
2019-Oct-13 03:30N 57°09' W 002°05'0 0.0
2019-Oct-13 03:00N 57°09' W 002°05'0 0.0
2019-Oct-13 02:30N 57°09' W 002°05'0 0.0
2019-Oct-13 02:00N 57°09' W 002°05'0 0.0
2019-Oct-13 01:30N 57°09' W 002°05'0 0.0
2019-Oct-13 01:00N 57°09' W 002°05'0 0.0
2019-Oct-13 00:30N 57°09' W 002°05'0 0.0
2019-Oct-13 00:00N 57°09' W 002°05'0 0.0
2019-Oct-12 23:30N 57°09' W 002°05'0 0.0
2019-Oct-12 23:00N 57°09' W 002°05'0 0.0
2019-Oct-12 22:30N 57°09' W 002°05'0 0.0
2019-Oct-12 22:00N 57°09' W 002°05'0 0.0
2019-Oct-12 21:30N 57°09' W 002°05'0 0.0
2019-Oct-12 21:00N 57°09' W 002°05'0 0.0
2019-Oct-12 20:30N 57°09' W 002°05'0 0.0
2019-Oct-12 20:00N 57°09' W 002°05'0 0.0
2019-Oct-12 19:30N 57°09' W 002°05'0 0.0
2019-Oct-12 19:00N 57°09' W 002°05'0 0.0
2019-Oct-12 18:30N 57°09' W 002°05'0 0.0
2019-Oct-12 18:00N 57°09' W 002°05'0 0.0
2019-Oct-12 17:30N 57°09' W 002°05'0 0.0
2019-Oct-12 17:00N 57°09' W 002°05'0 0.0
2019-Oct-12 16:27N 57°09' W 002°05'0 0.0
2019-Oct-12 16:00N 57°09' W 002°05'0 0.0
2019-Oct-12 15:30N 57°09' W 002°05'0 0.0
2019-Oct-12 15:00N 57°09' W 002°05'0 0.0
2019-Oct-12 14:30N 57°09' W 002°05'0 0.0
2019-Oct-12 14:00N 57°09' W 002°05'0 0.0
2019-Oct-12 13:30N 57°09' W 002°05'0 0.0
2019-Oct-12 13:00N 57°09' W 002°05'0 0.0
2019-Oct-12 12:30N 57°09' W 002°05'0 0.0
2019-Oct-12 12:00N 57°09' W 002°05'0 0.0
2019-Oct-12 11:30N 57°09' W 002°05'0 0.0
2019-Oct-12 11:00N 57°09' W 002°05'0 0.0
2019-Oct-12 10:30N 57°09' W 002°05'0 0.0
2019-Oct-12 10:00N 57°09' W 002°05'0 0.0
2019-Oct-12 09:30N 57°09' W 002°05'0 0.0
2019-Oct-12 09:00N 57°09' W 002°05'0 0.0
2019-Oct-12 08:30N 57°09' W 002°05'0 0.0
2019-Oct-12 08:00N 57°09' W 002°05'0 0.0
2019-Oct-12 07:30N 57°09' W 002°05'0 0.0
2019-Oct-12 07:00N 57°09' W 002°05'0 0.0
2019-Oct-12 06:30N 57°09' W 002°05'0 0.0
2019-Oct-12 06:00N 57°09' W 002°05'0 0.0
2019-Oct-12 05:30N 57°09' W 002°05'0 0.0
2019-Oct-12 05:00N 57°09' W 002°05'0 0.0
2019-Oct-12 04:30N 57°09' W 002°05'0 0.0
2019-Oct-12 04:00N 57°09' W 002°05'0 0.0
2019-Oct-12 03:30N 57°09' W 002°05'0 0.0
2019-Oct-12 03:00N 57°09' W 002°05'0 0.0
2019-Oct-12 02:30N 57°09' W 002°05'0 0.0
2019-Oct-12 02:00N 57°09' W 002°05'0 0.0
2019-Oct-12 01:30N 57°09' W 002°05'0 0.0
2019-Oct-12 01:00N 57°09' W 002°05'0 0.0
2019-Oct-12 00:30N 57°09' W 002°05'0 0.0
2019-Oct-12 00:00N 57°09' W 002°05'0 0.0
2019-Oct-11 23:30N 57°09' W 002°05'0 0.0
2019-Oct-11 23:00N 57°09' W 002°05'0 0.0
2019-Oct-11 22:30N 57°09' W 002°05'0 0.0
2019-Oct-11 22:00N 57°09' W 002°05'0 0.0
2019-Oct-11 21:30N 57°09' W 002°05'0 0.0
2019-Oct-11 21:00N 57°09' W 002°05'0 0.0
2019-Oct-11 20:30N 57°09' W 002°05'0 0.0
2019-Oct-11 20:00N 57°09' W 002°05'0 0.0
2019-Oct-11 19:30N 57°09' W 002°05'0 0.0
2019-Oct-11 19:00N 57°09' W 002°05'0 0.0
2019-Oct-11 18:30N 57°09' W 002°05'0 0.0
2019-Oct-11 18:00N 57°09' W 002°05'0 0.0
2019-Oct-11 17:30N 57°09' W 002°05'0 0.0
2019-Oct-11 17:00N 57°09' W 002°05'0 0.0
2019-Oct-11 16:30N 57°09' W 002°05'0 0.0
2019-Oct-11 16:00N 57°09' W 002°05'0 0.0
2019-Oct-11 15:30N 57°09' W 002°05'0 0.0
2019-Oct-11 15:00N 57°09' W 002°05'0 0.0
2019-Oct-11 14:30N 57°09' W 002°05'0 0.0
2019-Oct-11 14:00N 57°09' W 002°05'0 0.0
2019-Oct-11 13:30N 57°09' W 002°05'0 0.0
2019-Oct-11 13:00N 57°09' W 002°05'0 0.0
2019-Oct-11 12:30N 57°09' W 002°05'0 0.0
2019-Oct-11 11:57N 57°09' W 002°05'0 0.0
2019-Oct-11 11:30N 57°09' W 002°05'0 0.0
2019-Oct-11 11:00N 57°09' W 002°05'0 0.0
2019-Oct-11 10:30N 57°09' W 002°05'0 0.0
2019-Oct-11 10:00N 57°09' W 002°05'0 0.0
2019-Oct-11 09:30N 57°09' W 002°05'0 0.0
2019-Oct-11 09:00N 57°09' W 002°05'0 0.0
2019-Oct-11 08:30N 57°09' W 002°05'0 0.0
2019-Oct-11 08:00N 57°09' W 002°05'0 0.0
2019-Oct-11 07:27N 57°09' W 002°05'0 0.0
2019-Oct-11 07:00N 57°09' W 002°05'0 0.0
2019-Oct-11 06:30N 57°09' W 002°05'0 0.0
2019-Oct-11 06:00N 57°09' W 002°05'0 0.0
2019-Oct-11 05:30N 57°09' W 002°05'0 0.0
2019-Oct-11 05:00N 57°09' W 002°05'0 0.0
2019-Oct-11 04:30N 57°09' W 002°05'0 0.0
2019-Oct-11 04:00N 57°09' W 002°05'0 0.0
2019-Oct-11 03:30N 57°09' W 002°05'0 0.0
2019-Oct-11 03:00N 57°09' W 002°05'0 0.0
2019-Oct-11 02:30N 57°09' W 002°05'0 0.0
2019-Oct-11 02:00N 57°09' W 002°05'0 0.0
2019-Oct-11 01:30N 57°09' W 002°05'0 0.0
2019-Oct-11 01:00N 57°09' W 002°05'0 0.0
2019-Oct-11 00:30N 57°09' W 002°05'0 0.0
2019-Oct-11 00:00N 57°09' W 002°05'0 0.0
2019-Oct-10 23:30N 57°09' W 002°05'0 0.0
2019-Oct-10 23:00N 57°09' W 002°05'0 0.0
2019-Oct-10 22:30N 57°09' W 002°05'0 0.0
2019-Oct-10 22:00N 57°09' W 002°05'0 0.0
2019-Oct-10 21:30N 57°09' W 002°05'0 0.0
2019-Oct-10 21:00N 57°09' W 002°05'0 0.0
2019-Oct-10 20:30N 57°09' W 002°05'0 0.0
2019-Oct-10 20:00N 57°09' W 002°05'0 0.0
2019-Oct-10 19:30N 57°09' W 002°05'0 0.0
2019-Oct-10 19:00N 57°09' W 002°05'0 0.0
2019-Oct-10 18:30N 57°09' W 002°05'0 0.0
2019-Oct-10 18:00N 57°09' W 002°05'0 0.0
2019-Oct-10 17:30N 57°09' W 002°05'0 0.0
2019-Oct-10 17:00N 57°09' W 002°05'0 0.0
2019-Oct-10 16:30N 57°09' W 002°05'0 0.0
2019-Oct-10 16:00N 57°09' W 002°05'0 0.0
2019-Oct-10 15:30N 57°09' W 002°05'0 0.2
2019-Oct-10 15:01N 57°09' W 002°05'3 6.2
2019-Oct-10 14:31N 57°11' W 002°00'510.7
2019-Oct-10 14:00N 57°15' W 001°55'511.0
2019-Oct-10 13:31N 57°20' W 001°50'2 4.4
2019-Oct-10 13:01N 57°22' W 001°48'4 8.2
2019-Oct-10 12:30N 57°25' W 001°44'510.3
2019-Oct-10 12:01N 57°30' W 001°41'612.4
2019-Oct-10 11:31N 57°36' W 001°42'612.4
2019-Oct-10 11:01N 57°42' W 001°43'611.9
2019-Oct-10 10:30N 57°49' W 001°44'  
2019-Oct-04 20:02N 55°14' W 010°23'37 3.8
2019-Oct-04 10:30N 54°45' W 009°43'6 9.7
2019-Oct-04 09:55N 54°41' W 009°36'6 9.5
2019-Oct-04 09:18N 54°37' W 009°28'  
Track history (hours):
 
Tides and Currents Weather Stations Pressure Air Temp Water Temp Dewpoint Dewpoint Depression Visibility Wind Speed Wind Dir Waves Ship Positions

Oceanographic research ship Scotia (UK)

Detailed information on ship capabilities available from University of Delaware's Ocean Information Center.

Last reported at 2019-Oct-14 09:13 UTC. Time now 2019-Oct-17 18:39 UTC.
Position N 57°36' W 001°18'.

Length 68.6 m; beam 15 m; draft 5.6 m.

Type: Other ship. MMSI: 234973000.

Date/timePositionNaut miles runAvg speedWind from/ knotsBaromVisibWave heightAir tempDewpointWater temp
2019-Oct-14 09:13N 57°36' W 001°18'211.1
2019-Oct-14 09:01N 57°34' W 001°20'2 4.9
2019-Oct-14 08:31N 57°31' W 001°21'0 0.0
2019-Oct-14 08:00N 57°31' W 001°21'0 0.5
2019-Oct-14 07:30N 57°31' W 001°21'0 0.0
2019-Oct-14 06:50N 57°31' W 001°21'3 9.1
2019-Oct-14 06:30N 57°29' W 001°26'611.8
2019-Oct-14 06:00N 57°25' W 001°33'612.2
2019-Oct-14 05:31N 57°21' W 001°41'612.1
2019-Oct-14 05:00N 57°16' W 001°49'611.7
2019-Oct-14 04:30N 57°12' W 001°57'5 9.8
2019-Oct-14 04:01N 57°09' W 002°03'1 1.6
2019-Oct-14 03:30N 57°09' W 002°05'0 0.0
2019-Oct-14 03:00N 57°09' W 002°05'0 0.0
2019-Oct-14 02:30N 57°09' W 002°05'0 0.0
2019-Oct-14 02:00N 57°09' W 002°05'0 0.0
2019-Oct-14 01:30N 57°09' W 002°05'0 0.0
2019-Oct-14 01:00N 57°09' W 002°05'0 0.0
2019-Oct-14 00:30N 57°09' W 002°05'0 0.0
2019-Oct-14 00:00N 57°09' W 002°05'0 0.0
2019-Oct-13 23:30N 57°09' W 002°05'0 0.0
2019-Oct-13 23:00N 57°09' W 002°05'0 0.0
2019-Oct-13 22:30N 57°09' W 002°05'0 0.0
2019-Oct-13 22:00N 57°09' W 002°05'0 0.0
2019-Oct-13 21:30N 57°09' W 002°05'0 0.0
2019-Oct-13 21:00N 57°09' W 002°05'0 0.0
2019-Oct-13 20:30N 57°09' W 002°05'0 0.0
2019-Oct-13 20:00N 57°09' W 002°05'0 0.0
2019-Oct-13 19:30N 57°09' W 002°05'0 0.0
2019-Oct-13 19:00N 57°09' W 002°05'0 0.0
2019-Oct-13 18:30N 57°09' W 002°05'0 0.0
2019-Oct-13 18:00N 57°09' W 002°05'0 0.0
2019-Oct-13 17:30N 57°09' W 002°05'0 0.0
2019-Oct-13 17:00N 57°09' W 002°05'0 0.0
2019-Oct-13 16:30N 57°09' W 002°05'0 0.0
2019-Oct-13 16:00N 57°09' W 002°05'0 0.0
2019-Oct-13 15:30N 57°09' W 002°05'0 0.0
2019-Oct-13 15:00N 57°09' W 002°05'0 0.0
2019-Oct-13 14:30N 57°09' W 002°05'0 0.0
2019-Oct-13 14:00N 57°09' W 002°05'0 0.0
2019-Oct-13 13:30N 57°09' W 002°05'0 0.0
2019-Oct-13 13:00N 57°09' W 002°05'0 0.0
2019-Oct-13 12:30N 57°09' W 002°05'0 0.0
2019-Oct-13 12:00N 57°09' W 002°05'0 0.0
2019-Oct-13 11:30N 57°09' W 002°05'0 0.0
2019-Oct-13 11:00N 57°09' W 002°05'0 0.0
2019-Oct-13 10:30N 57°09' W 002°05'0 0.0
2019-Oct-13 10:00N 57°09' W 002°05'0 0.0
2019-Oct-13 09:30N 57°09' W 002°05'0 0.0
2019-Oct-13 09:00N 57°09' W 002°05'0 0.0
2019-Oct-13 08:30N 57°09' W 002°05'0 0.0
2019-Oct-13 08:00N 57°09' W 002°05'0 0.0
2019-Oct-13 07:30N 57°09' W 002°05'0 0.0
2019-Oct-13 07:00N 57°09' W 002°05'0 0.0
2019-Oct-13 06:30N 57°09' W 002°05'0 0.0
2019-Oct-13 06:00N 57°09' W 002°05'0 0.0
2019-Oct-13 05:30N 57°09' W 002°05'0 0.0
2019-Oct-13 05:00N 57°09' W 002°05'0 0.0
2019-Oct-13 04:30N 57°09' W 002°05'0 0.0
2019-Oct-13 04:00N 57°09' W 002°05'0 0.0
2019-Oct-13 03:30N 57°09' W 002°05'0 0.0
2019-Oct-13 03:00N 57°09' W 002°05'0 0.0
2019-Oct-13 02:30N 57°09' W 002°05'0 0.0
2019-Oct-13 02:00N 57°09' W 002°05'0 0.0
2019-Oct-13 01:30N 57°09' W 002°05'0 0.0
2019-Oct-13 01:00N 57°09' W 002°05'0 0.0
2019-Oct-13 00:30N 57°09' W 002°05'0 0.0
2019-Oct-13 00:00N 57°09' W 002°05'0 0.0
2019-Oct-12 23:30N 57°09' W 002°05'0 0.0
2019-Oct-12 23:00N 57°09' W 002°05'0 0.0
2019-Oct-12 22:30N 57°09' W 002°05'0 0.0
2019-Oct-12 22:00N 57°09' W 002°05'0 0.0
2019-Oct-12 21:30N 57°09' W 002°05'0 0.0
2019-Oct-12 21:00N 57°09' W 002°05'0 0.0
2019-Oct-12 20:30N 57°09' W 002°05'0 0.0
2019-Oct-12 20:00N 57°09' W 002°05'0 0.0
2019-Oct-12 19:30N 57°09' W 002°05'0 0.0
2019-Oct-12 19:00N 57°09' W 002°05'0 0.0
2019-Oct-12 18:30N 57°09' W 002°05'0 0.0
2019-Oct-12 18:00N 57°09' W 002°05'0 0.0
2019-Oct-12 17:30N 57°09' W 002°05'0 0.0
2019-Oct-12 17:00N 57°09' W 002°05'0 0.0
2019-Oct-12 16:27N 57°09' W 002°05'0 0.0
2019-Oct-12 16:00N 57°09' W 002°05'0 0.0
2019-Oct-12 15:30N 57°09' W 002°05'0 0.0
2019-Oct-12 15:00N 57°09' W 002°05'0 0.0
2019-Oct-12 14:30N 57°09' W 002°05'0 0.0
2019-Oct-12 14:00N 57°09' W 002°05'0 0.0
2019-Oct-12 13:30N 57°09' W 002°05'0 0.0
2019-Oct-12 13:00N 57°09' W 002°05'0 0.0
2019-Oct-12 12:30N 57°09' W 002°05'0 0.0
2019-Oct-12 12:00N 57°09' W 002°05'0 0.0
2019-Oct-12 11:30N 57°09' W 002°05'0 0.0
2019-Oct-12 11:00N 57°09' W 002°05'0 0.0
2019-Oct-12 10:30N 57°09' W 002°05'0 0.0
2019-Oct-12 10:00N 57°09' W 002°05'0 0.0
2019-Oct-12 09:30N 57°09' W 002°05'0 0.0
2019-Oct-12 09:00N 57°09' W 002°05'0 0.0
2019-Oct-12 08:30N 57°09' W 002°05'0 0.0
2019-Oct-12 08:00N 57°09' W 002°05'0 0.0
2019-Oct-12 07:30N 57°09' W 002°05'0 0.0
2019-Oct-12 07:00N 57°09' W 002°05'0 0.0
2019-Oct-12 06:30N 57°09' W 002°05'0 0.0
2019-Oct-12 06:00N 57°09' W 002°05'0 0.0
2019-Oct-12 05:30N 57°09' W 002°05'0 0.0
2019-Oct-12 05:00N 57°09' W 002°05'0 0.0
2019-Oct-12 04:30N 57°09' W 002°05'0 0.0
2019-Oct-12 04:00N 57°09' W 002°05'0 0.0
2019-Oct-12 03:30N 57°09' W 002°05'0 0.0
2019-Oct-12 03:00N 57°09' W 002°05'0 0.0
2019-Oct-12 02:30N 57°09' W 002°05'0 0.0
2019-Oct-12 02:00N 57°09' W 002°05'0 0.0
2019-Oct-12 01:30N 57°09' W 002°05'0 0.0
2019-Oct-12 01:00N 57°09' W 002°05'0 0.0
2019-Oct-12 00:30N 57°09' W 002°05'0 0.0
2019-Oct-12 00:00N 57°09' W 002°05'0 0.0
2019-Oct-11 23:30N 57°09' W 002°05'0 0.0
2019-Oct-11 23:00N 57°09' W 002°05'0 0.0
2019-Oct-11 22:30N 57°09' W 002°05'0 0.0
2019-Oct-11 22:00N 57°09' W 002°05'0 0.0
2019-Oct-11 21:30N 57°09' W 002°05'0 0.0
2019-Oct-11 21:00N 57°09' W 002°05'0 0.0
2019-Oct-11 20:30N 57°09' W 002°05'0 0.0
2019-Oct-11 20:00N 57°09' W 002°05'0 0.0
2019-Oct-11 19:30N 57°09' W 002°05'0 0.0
2019-Oct-11 19:00N 57°09' W 002°05'0 0.0
2019-Oct-11 18:30N 57°09' W 002°05'0 0.0
2019-Oct-11 18:00N 57°09' W 002°05'0 0.0
2019-Oct-11 17:30N 57°09' W 002°05'0 0.0
2019-Oct-11 17:00N 57°09' W 002°05'0 0.0
2019-Oct-11 16:30N 57°09' W 002°05'0 0.0
2019-Oct-11 16:00N 57°09' W 002°05'0 0.0
2019-Oct-11 15:30N 57°09' W 002°05'0 0.0
2019-Oct-11 15:00N 57°09' W 002°05'0 0.0
2019-Oct-11 14:30N 57°09' W 002°05'0 0.0
2019-Oct-11 14:00N 57°09' W 002°05'0 0.0
2019-Oct-11 13:30N 57°09' W 002°05'0 0.0
2019-Oct-11 13:00N 57°09' W 002°05'0 0.0
2019-Oct-11 12:30N 57°09' W 002°05'0 0.0
2019-Oct-11 11:57N 57°09' W 002°05'0 0.0
2019-Oct-11 11:30N 57°09' W 002°05'0 0.0
2019-Oct-11 11:00N 57°09' W 002°05'0 0.0
2019-Oct-11 10:30N 57°09' W 002°05'0 0.0
2019-Oct-11 10:00N 57°09' W 002°05'0 0.0
2019-Oct-11 09:30N 57°09' W 002°05'0 0.0
2019-Oct-11 09:00N 57°09' W 002°05'0 0.0
2019-Oct-11 08:30N 57°09' W 002°05'0 0.0
2019-Oct-11 08:00N 57°09' W 002°05'0 0.0
2019-Oct-11 07:27N 57°09' W 002°05'0 0.0
2019-Oct-11 07:00N 57°09' W 002°05'0 0.0
2019-Oct-11 06:30N 57°09' W 002°05'0 0.0
2019-Oct-11 06:00N 57°09' W 002°05'0 0.0
2019-Oct-11 05:30N 57°09' W 002°05'0 0.0
2019-Oct-11 05:00N 57°09' W 002°05'0 0.0
2019-Oct-11 04:30N 57°09' W 002°05'0 0.0
2019-Oct-11 04:00N 57°09' W 002°05'0 0.0
2019-Oct-11 03:30N 57°09' W 002°05'0 0.0
2019-Oct-11 03:00N 57°09' W 002°05'0 0.0
2019-Oct-11 02:30N 57°09' W 002°05'0 0.0
2019-Oct-11 02:00N 57°09' W 002°05'0 0.0
2019-Oct-11 01:30N 57°09' W 002°05'0 0.0
2019-Oct-11 01:00N 57°09' W 002°05'0 0.0
2019-Oct-11 00:30N 57°09' W 002°05'0 0.0
2019-Oct-11 00:00N 57°09' W 002°05'0 0.0
2019-Oct-10 23:30N 57°09' W 002°05'0 0.0
2019-Oct-10 23:00N 57°09' W 002°05'0 0.0
2019-Oct-10 22:30N 57°09' W 002°05'0 0.0
2019-Oct-10 22:00N 57°09' W 002°05'0 0.0
2019-Oct-10 21:30N 57°09' W 002°05'0 0.0
2019-Oct-10 21:00N 57°09' W 002°05'0 0.0
2019-Oct-10 20:30N 57°09' W 002°05'0 0.0
2019-Oct-10 20:00N 57°09' W 002°05'0 0.0
2019-Oct-10 19:30N 57°09' W 002°05'0 0.0
2019-Oct-10 19:00N 57°09' W 002°05'0 0.0
2019-Oct-10 18:30N 57°09' W 002°05'0 0.0
2019-Oct-10 18:00N 57°09' W 002°05'0 0.0
2019-Oct-10 17:30N 57°09' W 002°05'0 0.0
2019-Oct-10 17:00N 57°09' W 002°05'0 0.0
2019-Oct-10 16:30N 57°09' W 002°05'0 0.0
2019-Oct-10 16:00N 57°09' W 002°05'0 0.0
2019-Oct-10 15:30N 57°09' W 002°05'0 0.2
2019-Oct-10 15:01N 57°09' W 002°05'3 6.2
2019-Oct-10 14:31N 57°11' W 002°00'510.7
2019-Oct-10 14:00N 57°15' W 001°55'511.0
2019-Oct-10 13:31N 57°20' W 001°50'2 4.4
2019-Oct-10 13:01N 57°22' W 001°48'4 8.2
2019-Oct-10 12:30N 57°25' W 001°44'510.3
2019-Oct-10 12:01N 57°30' W 001°41'612.4
2019-Oct-10 11:31N 57°36' W 001°42'612.4
2019-Oct-10 11:01N 57°42' W 001°43'611.9
2019-Oct-10 10:30N 57°49' W 001°44'  
2019-Oct-04 20:02N 55°14' W 010°23'37 3.8
2019-Oct-04 10:30N 54°45' W 009°43'6 9.7
2019-Oct-04 09:55N 54°41' W 009°36'6 9.5
2019-Oct-04 09:18N 54°37' W 009°28'  

Dump ship's entire track history